Portland, United Kingdom
Current Conditions -  °F | °C
As of 10:20 PM on Sunday 21 Dec 2014 (Local Time) from EGHH Reporting Station
Drizzle Drizzle  
Wind Chill: 11°   Ceiling: 800
Heat Index: 11°   Visibility: 4mi
Dew Point: 11°   Wind: 20mph
Humidity: 100%   Direction: 250°WSW
Pressure: 30.24"   Gusts: NA
Location:  50.56°N, 2.44°W
Report Text: EGHH 212220Z 25017KT 7000 DZ BKN008 SCT015 11/11 Q1024
Loading
Personal Weather Stations






























Interactive Weather Map New forecast layout! Learn more

10-Day Weather Forecast

Advertisements
Track Severe Weather on mobile